Time;durP1;ratioP1;P1;durP2;ratioP2;P2;SDS_P1;SDS_P2;PMS_P1;PMS_P2;Temp;Humidity;BMP_temperature;BMP_pressure;BME280_temperature;BME280_humidity;BME280_pressure;Samples;Min_cycle;Max_cycle;Signal;HPM_P1;HPM_P2
2023/09/22 00:00:57;;;;;;;1.85;0.50;;;;;;;15.37;100.00;96988.13;6114479;19;20007;-72
2023/09/22 00:02:58;;;;;;;1.05;0.50;;;;;;;15.37;100.00;96987.34;6113485;19;20006;-72
2023/09/22 00:04:58;;;;;;;0.50;0.40;;;;;;;15.40;100.00;96986.47;6113689;19;20022;-72
2023/09/22 00:06:59;;;;;;;0.90;0.50;;;;;;;15.40;100.00;96990.03;6113565;19;20018;-71
2023/09/22 00:08:59;;;;;;;1.15;0.40;;;;;;;15.37;100.00;96990.13;6112309;19;21102;-72
2023/09/22 00:11:00;;;;;;;0.30;0.30;;;;;;;15.37;100.00;96987.34;6112445;19;20345;-72
2023/09/22 00:13:00;;;;;;;0.80;0.40;;;;;;;15.40;100.00;96992.03;6113855;19;20011;-71
2023/09/22 00:15:03;;;;;;;1.60;0.60;;;;;;;15.43;100.00;96997.47;6113659;19;20434;-71
2023/09/22 00:17:04;;;;;;;0.40;0.40;;;;;;;15.40;100.00;96986.47;6111883;19;20064;-71
2023/09/22 00:19:05;;;;;;;0.70;0.50;;;;;;;15.40;100.00;96995.59;6111498;19;20446;-72
2023/09/22 00:21:06;;;;;;;1.67;0.40;;;;;;;15.40;100.00;96997.59;6112906;19;20010;-71
2023/09/22 00:23:07;;;;;;;1.08;0.30;;;;;;;15.37;100.00;97004.06;6113625;19;20014;-71
2023/09/22 00:25:09;;;;;;;0.82;0.28;;;;;;;15.31;100.00;96998.28;6112116;19;20006;-71
2023/09/22 00:27:09;;;;;;;0.55;0.43;;;;;;;15.25;100.00;97002.84;6112377;19;20007;-71
2023/09/22 00:29:09;;;;;;;0.75;0.50;;;;;;;15.24;100.00;97004.06;6111135;19;20026;-72
2023/09/22 00:31:10;;;;;;;0.30;0.30;;;;;;;15.24;100.00;96994.94;6113509;19;20048;-71
2023/09/22 00:33:10;;;;;;;0.40;0.40;;;;;;;15.21;100.00;96996.56;6112750;19;20058;-71
2023/09/22 00:35:12;;;;;;;0.50;0.35;;;;;;;15.22;100.00;96989.00;6112765;19;20011;-71
2023/09/22 00:37:12;;;;;;;0.30;0.30;;;;;;;15.30;100.00;96987.56;6113636;19;20003;-71
2023/09/22 00:39:13;;;;;;;1.17;0.40;;;;;;;15.22;100.00;96992.56;6110584;19;20010;-71
2023/09/22 00:41:13;;;;;;;1.65;0.40;;;;;;;15.17;100.00;96995.91;6112242;19;20052;-71
2023/09/22 00:43:15;;;;;;;1.50;0.50;;;;;;;15.09;100.00;96995.34;6112780;19;20356;-71
2023/09/22 00:45:17;;;;;;;;;;;;;;;15.06;100.00;96998.22;6113718;19;20045;-71
2023/09/22 00:47:18;;;;;;;0.50;0.50;;;;;;;14.97;100.00;96996.09;6110378;19;20334;-71
2023/09/22 00:49:19;;;;;;;0.47;0.35;;;;;;;14.98;100.00;96996.91;6109853;19;20493;-71
2023/09/22 00:51:19;;;;;;;0.88;0.43;;;;;;;14.93;100.00;97003.00;6107579;19;20302;-71
2023/09/22 00:53:20;;;;;;;0.40;0.40;;;;;;;14.91;100.00;97011.03;6110341;19;20021;-71
2023/09/22 00:55:21;;;;;;;0.45;0.20;;;;;;;14.85;100.00;97014.34;6111552;19;20025;-71
2023/09/22 00:57:21;;;;;;;0.88;0.50;;;;;;;14.83;100.00;97014.03;6111582;19;20014;-71
2023/09/22 00:59:22;;;;;;;0.47;0.40;;;;;;;14.79;100.00;97006.97;6111433;19;20021;-71
2023/09/22 01:01:24;;;;;;;1.15;0.40;;;;;;;14.78;100.00;97008.97;6111860;19;20010;-71
2023/09/22 01:03:24;;;;;;;1.05;0.73;;;;;;;14.78;100.00;97014.56;6111360;19;20007;-71
2023/09/22 01:05:25;;;;;;;0.85;0.65;;;;;;;14.83;100.00;97021.59;6111665;19;20450;-71
2023/09/22 01:07:26;;;;;;;0.88;0.50;;;;;;;14.85;100.00;97021.94;6112176;19;20006;-71
2023/09/22 01:09:26;;;;;;;0.95;0.50;;;;;;;14.83;100.00;97016.03;6110317;19;20006;-71
2023/09/22 01:11:27;;;;;;;0.52;0.40;;;;;;;14.83;100.00;97016.03;6110780;19;20002;-71
2023/09/22 01:13:27;;;;;;;1.65;0.60;;;;;;;14.79;100.00;97006.97;6112676;19;20007;-71
2023/09/22 01:15:28;;;;;;;0.60;0.50;;;;;;;14.72;100.00;97010.75;6110377;19;20006;-71
2023/09/22 01:17:28;;;;;;;0.68;0.50;;;;;;;14.72;100.00;97009.97;6111605;19;20007;-71
2023/09/22 01:19:30;;;;;;;1.02;0.70;;;;;;;14.73;100.00;97022.66;6110950;19;20023;-72
2023/09/22 01:21:34;;;;;;;0.85;0.57;;;;;;;14.72;100.00;97030.22;6110989;19;20007;-71
2023/09/22 01:23:35;;;;;;;2.53;0.60;;;;;;;14.69;100.00;97030.34;6110797;19;20006;-71
2023/09/22 01:25:36;;;;;;;1.50;0.70;;;;;;;14.70;100.00;97026.34;6110642;19;20359;-71
2023/09/22 01:27:36;;;;;;;0.70;0.60;;;;;;;14.71;100.00;97037.03;6111825;19;20029;-71
2023/09/22 01:29:37;;;;;;;1.33;0.60;;;;;;;14.71;100.00;97033.47;6110141;19;20302;-71
2023/09/22 01:31:38;;;;;;;0.70;0.70;;;;;;;14.70;100.00;97048.59;6111114;19;20513;-71
2023/09/22 01:33:39;;;;;;;1.98;0.60;;;;;;;14.68;100.00;97056.63;6110306;19;20031;-71
2023/09/22 01:35:39;;;;;;;1.00;0.60;;;;;;;14.76;100.00;97055.19;6111672;19;20013;-71
2023/09/22 01:37:56;;;;;;;1.67;0.60;;;;;;;14.78;100.00;97063.88;6110272;19;19998;-71
2023/09/22 01:39:58;;;;;;;1.45;0.80;;;;;;;14.77;100.00;97057.53;6110346;19;20002;-71
2023/09/22 01:41:58;;;;;;;1.05;0.77;;;;;;;14.93;100.00;97059.47;6110971;19;20007;-71
2023/09/22 01:43:58;;;;;;;0.88;0.70;;;;;;;14.93;100.00;97056.69;6111391;19;20021;-71
2023/09/22 01:45:59;;;;;;;1.00;0.70;;;;;;;14.92;100.00;97049.56;6111423;19;20474;-71
2023/09/22 01:47:59;;;;;;;1.55;0.60;;;;;;;14.94;100.00;97063.06;6108767;19;20061;-71
2023/09/22 01:50:00;;;;;;;1.67;0.77;;;;;;;14.89;100.00;97050.44;6108206;19;20392;-71
2023/09/22 01:52:01;;;;;;;1.00;0.70;;;;;;;14.88;100.00;97060.00;6109144;19;20010;-71
2023/09/22 01:54:01;;;;;;;1.60;0.70;;;;;;;14.84;100.00;97060.13;6108134;19;20922;-72
2023/09/22 01:56:01;;;;;;;0.88;0.60;;;;;;;14.76;100.00;97058.75;6108008;19;20093;-72
2023/09/22 01:58:04;;;;;;;2.85;1.00;;;;;;;14.72;100.00;97071.22;6109154;19;20024;-72
2023/09/22 02:00:06;;;;;;;0.73;0.70;;;;;;;14.70;100.00;97065.31;6106837;19;20018;-72
2023/09/22 02:02:06;;;;;;;0.60;0.60;;;;;;;14.65;100.00;97063.06;6107926;19;20562;-71
2023/09/22 02:04:06;;;;;;;1.50;0.80;;;;;;;14.58;100.00;97067.59;6108697;19;19995;-72
2023/09/22 02:06:07;;;;;;;2.58;0.88;;;;;;;14.51;100.00;97059.44;6107890;19;20106;-72
2023/09/22 02:08:10;;;;;;;1.20;0.80;;;;;;;14.51;100.00;97059.44;6106037;19;20006;-71
2023/09/22 02:10:15;;;;;;;1.20;0.90;;;;;;;14.48;100.00;97045.59;6106974;19;20015;-71
2023/09/22 02:12:16;;;;;;;0.80;0.65;;;;;;;14.45;100.00;97043.69;6108464;19;20456;-71
2023/09/22 02:14:16;;;;;;;0.80;0.80;;;;;;;14.44;100.00;97039.34;6107743;19;20018;-72
2023/09/22 02:16:16;;;;;;;1.00;0.73;;;;;;;14.43;100.00;97029.44;6107505;19;20015;-72
2023/09/22 02:18:17;;;;;;;1.05;0.70;;;;;;;14.39;100.00;97025.94;6107506;19;20488;-71
2023/09/22 02:20:18;;;;;;;0.80;0.80;;;;;;;14.39;100.00;97037.06;6107031;19;20064;-72
2023/09/22 02:22:18;;;;;;;1.70;0.68;;;;;;;14.39;100.00;97025.94;6107186;19;20010;-71
2023/09/22 02:24:19;;;;;;;0.90;0.80;;;;;;;14.35;100.00;97014.94;6108163;19;20003;-71
2023/09/22 02:26:19;;;;;;;0.98;0.80;;;;;;;14.33;100.00;97011.81;6108039;19;20343;-72
2023/09/22 02:28:20;;;;;;;1.20;0.70;;;;;;;14.29;100.00;97013.91;6107404;19;20007;-71
2023/09/22 02:30:21;;;;;;;1.27;0.80;;;;;;;14.23;100.00;97027.56;6107254;19;20026;-71
2023/09/22 02:32:21;;;;;;;1.05;0.80;;;;;;;14.23;100.00;97030.34;6108472;19;20340;-71
2023/09/22 02:34:22;;;;;;;1.20;0.80;;;;;;;14.21;100.00;97026.44;6107493;19;20388;-71
2023/09/22 02:36:22;;;;;;;3.08;0.82;;;;;;;14.21;100.00;97032.00;6106469;19;20316;-72
2023/09/22 02:38:22;;;;;;;2.10;1.20;;;;;;;14.17;100.00;97048.78;6107264;19;20054;-71
2023/09/22 02:40:23;;;;;;;2.17;0.98;;;;;;;14.17;100.00;97054.34;6104206;19;20498;-71
2023/09/22 02:42:23;;;;;;;1.55;1.00;;;;;;;14.20;100.00;97055.47;6107438;19;20435;-71
2023/09/22 02:44:24;;;;;;;1.77;1.05;;;;;;;14.20;100.00;97055.47;6108277;19;20011;-72
2023/09/22 02:46:24;;;;;;;1.67;0.75;;;;;;;14.17;100.00;97059.91;6107114;19;20097;-71
2023/09/22 02:48:24;;;;;;;2.38;1.00;;;;;;;14.17;100.00;97056.34;6103931;19;20030;-71
2023/09/22 02:50:24;;;;;;;1.33;1.10;;;;;;;14.13;100.00;97064.75;6105464;19;20077;-71
2023/09/22 02:52:25;;;;;;;3.03;1.40;;;;;;;14.10;100.00;97045.41;6108369;19;20044;-71
2023/09/22 02:54:25;;;;;;;1.80;1.10;;;;;;;14.11;100.00;97052.53;6109468;19;20524;-71
2023/09/22 02:56:27;;;;;;;2.05;1.48;;;;;;;14.09;100.00;97064.09;6109516;19;20018;-71
2023/09/22 02:58:27;;;;;;;0.90;0.80;;;;;;;14.05;100.00;97061.38;6108081;19;20014;-71
2023/09/22 03:00:28;;;;;;;3.45;1.02;;;;;;;14.06;100.00;97049.03;6108352;19;20019;-72
2023/09/22 03:02:31;;;;;;;1.83;1.00;;;;;;;14.05;100.00;97050.25;6108250;19;20017;-71
2023/09/22 03:04:33;;;;;;;1.60;0.80;;;;;;;14.09;100.00;97060.53;6108353;19;20010;-72
2023/09/22 03:06:34;;;;;;;1.52;0.70;;;;;;;14.06;100.00;97051.03;6109135;19;20017;-71
2023/09/22 03:08:34;;;;;;;1.77;0.90;;;;;;;14.06;100.00;97051.81;6108100;19;20466;-72
2023/09/22 03:10:34;;;;;;;1.85;0.90;;;;;;;14.04;100.00;97039.56;6107438;19;20097;-71
2023/09/22 03:12:35;;;;;;;1.63;0.95;;;;;;;14.02;100.00;97047.56;6108916;19;20466;-71
2023/09/22 03:14:35;;;;;;;1.42;0.90;;;;;;;14.01;100.00;97043.22;6108476;19;20384;-71
2023/09/22 03:16:36;;;;;;;1.70;1.20;;;;;;;13.98;100.00;97039.34;6108556;19;20102;-71
2023/09/22 03:18:36;;;;;;;1.73;0.90;;;;;;;13.99;100.00;97042.91;6108681;19;20347;-71
2023/09/22 03:20:36;;;;;;;2.08;1.30;;;;;;;13.98;100.00;97030.19;6106336;19;20119;-71
2023/09/22 03:22:38;;;;;;;1.58;1.00;;;;;;;13.95;100.00;97034.63;6107510;19;20446;-71
2023/09/22 03:24:38;;;;;;;2.10;0.98;;;;;;;13.95;100.00;97047.75;6109330;19;20458;-72
2023/09/22 03:26:38;;;;;;;1.75;1.00;;;;;;;13.95;100.00;97044.97;6107952;19;20030;-71
2023/09/22 03:28:39;;;;;;;1.30;0.93;;;;;;;13.94;100.00;97040.63;6107960;19;20010;-71
2023/09/22 03:30:40;;;;;;;1.42;1.08;;;;;;;13.91;100.00;97044.28;6113136;19;20013;-71
2023/09/22 03:32:40;;;;;;;7.65;1.10;;;;;;;13.88;100.00;97062.59;6114185;19;20128;-71
2023/09/22 03:34:41;;;;;;;3.33;1.90;;;;;;;13.79;100.00;97076.31;6112799;19;20477;-71
2023/09/22 03:36:41;;;;;;;2.13;0.95;;;;;;;13.76;100.00;97077.19;6113619;19;20460;-71
2023/09/22 03:38:47;;;;;;;3.83;1.25;;;;;;;13.81;100.00;97073.09;6112341;19;20474;-71
2023/09/22 03:40:47;;;;;;;1.90;1.13;;;;;;;13.85;100.00;97074.59;6114023;19;20006;-71
2023/09/22 03:42:47;;;;;;;2.55;1.67;;;;;;;13.77;100.00;97071.19;6114203;19;20007;-71
2023/09/22 03:44:48;;;;;;;1.48;0.90;;;;;;;13.78;100.00;97077.53;6113112;19;20339;-71
2023/09/22 03:46:48;;;;;;;1.90;1.20;;;;;;;13.83;100.00;97065.91;6114277;19;20024;-71
2023/09/22 03:48:48;;;;;;;3.10;1.58;;;;;;;13.86;100.00;97081.72;6110672;19;20007;-71
2023/09/22 03:50:49;;;;;;;2.08;1.25;;;;;;;13.93;100.00;97081.56;6112697;19;20015;-71
2023/09/22 03:52:49;;;;;;;1.48;1.08;;;;;;;13.96;100.00;97077.09;6114921;19;20537;-71
2023/09/22 03:54:50;;;;;;;2.53;1.27;;;;;;;13.98;100.00;97074.66;6115196;19;20011;-71
2023/09/22 03:56:51;;;;;;;2.20;1.30;;;;;;;13.97;100.00;97087.78;6113975;19;20009;-71
2023/09/22 03:58:51;;;;;;;1.85;1.15;;;;;;;13.87;100.00;97091.63;6113986;19;20011;-72
2023/09/22 04:01:03;;;;;;;1.92;1.40;;;;;;;13.84;100.00;97091.72;6114363;19;20335;-71
2023/09/22 04:03:09;;;;;;;2.55;1.42;;;;;;;13.80;100.00;97086.22;6114825;19;20637;-71
2023/09/22 04:05:11;;;;;;;2.78;1.20;;;;;;;13.84;100.00;97089.72;6114448;19;20010;-71
2023/09/22 04:07:11;;;;;;;2.25;1.02;;;;;;;13.85;100.00;97082.94;6113461;19;20357;-71
2023/09/22 04:09:12;;;;;;;2.83;1.50;;;;;;;13.88;100.00;97089.63;6112862;19;20029;-72
2023/09/22 04:11:14;;;;;;;2.15;1.25;;;;;;;13.87;100.00;97079.72;6113683;19;20011;-71
2023/09/22 04:13:14;;;;;;;1.60;1.20;;;;;;;13.88;100.00;97072.94;6113689;19;20017;-72
2023/09/22 04:15:15;;;;;;;3.38;1.10;;;;;;;13.86;100.00;97080.94;6114538;19;20006;-71
2023/09/22 04:17:15;;;;;;;5.20;1.40;;;;;;;13.81;100.00;97078.66;6112971;19;20013;-71
2023/09/22 04:19:16;;;;;;;5.22;1.65;;;;;;;13.77;100.00;97073.97;6111406;19;20326;-71
2023/09/22 04:21:21;;;;;;;2.22;1.40;;;;;;;13.70;100.00;97078.94;6113835;19;20332;-71
2023/09/22 04:23:22;;;;;;;3.00;1.23;;;;;;;13.71;100.00;97078.47;6113436;19;20901;-71
2023/09/22 04:25:29;;;;;;;1.40;1.20;;;;;;;13.72;100.00;97079.25;6113865;19;20007;-71
2023/09/22 04:27:34;;;;;;;5.22;1.10;;;;;;;13.69;100.00;97085.69;6112469;19;20369;-71
2023/09/22 04:29:35;;;;;;;1.60;1.20;;;;;;;13.64;100.00;97084.19;6111059;19;20010;-71
2023/09/22 04:31:36;;;;;;;1.53;1.30;;;;;;;13.64;100.00;97105.66;6113569;19;20521;-72
2023/09/22 04:33:36;;;;;;;2.53;1.27;;;;;;;13.62;100.00;97103.31;6112854;19;20268;-72
2023/09/22 04:35:37;;;;;;;10.20;1.95;;;;;;;13.61;100.00;97114.88;6112840;19;20010;-71
2023/09/22 04:37:40;;;;;;;4.40;1.50;;;;;;;13.54;100.00;97104.69;6112672;19;20017;-71
2023/09/22 04:39:40;;;;;;;3.03;1.50;;;;;;;13.54;100.00;97103.91;6109929;19;20348;-71
2023/09/22 04:41:41;;;;;;;3.45;1.50;;;;;;;13.50;100.00;97109.56;6112110;19;20011;-71
2023/09/22 04:43:41;;;;;;;3.42;1.40;;;;;;;13.51;100.00;97115.88;6112988;19;20030;-71
2023/09/22 04:45:45;;;;;;;5.45;1.58;;;;;;;13.49;100.00;97100.44;6112264;19;20002;-71
2023/09/22 04:47:51;;;;;;;4.47;1.63;;;;;;;13.46;100.00;97090.16;6109131;19;20011;-72
2023/09/22 04:49:52;;;;;;;3.78;1.48;;;;;;;13.44;100.00;97100.16;6110605;19;20083;-71
2023/09/22 04:51:52;;;;;;;3.30;1.50;;;;;;;13.40;100.00;97096.66;6111663;19;20349;-71
2023/09/22 04:53:52;;;;;;;2.70;1.45;;;;;;;13.41;100.00;97099.03;6112687;19;20014;-71
2023/09/22 04:56:06;;;;;;;3.28;1.75;;;;;;;13.36;100.00;97093.97;6111981;19;20022;-72
2023/09/22 04:58:07;;;;;;;3.25;1.40;;;;;;;13.36;100.00;97091.19;6112016;19;20374;-71
2023/09/22 05:00:20;;;;;;;2.13;1.42;;;;;;;13.37;100.00;97098.31;6110636;19;20501;-72
2023/09/22 05:02:21;;;;;;;3.67;1.40;;;;;;;13.41;100.00;97107.38;6111875;19;22891;-71
2023/09/22 05:04:23;;;;;;;2.58;1.40;;;;;;;13.41;100.00;97103.81;6111601;19;20010;-71
2023/09/22 05:06:23;;;;;;;;;;;;;;;13.44;100.00;97114.03;6113177;19;20686;-71
2023/09/22 05:08:24;;;;;;;4.55;1.48;;;;;;;13.44;100.00;97103.72;6110984;19;19914;-72
2023/09/22 05:10:24;;;;;;;1.52;1.30;;;;;;;13.41;100.00;97085.13;6110777;19;20031;-71
2023/09/22 05:12:25;;;;;;;1.45;1.25;;;;;;;13.43;100.00;97079.16;6111117;19;20129;-71
2023/09/22 05:14:26;;;;;;;2.13;1.40;;;;;;;13.43;100.00;97079.94;6111858;19;20546;-71
2023/09/22 05:16:27;;;;;;;1.70;1.58;;;;;;;13.45;100.00;97071.94;6110706;19;20014;-71
2023/09/22 05:18:28;;;;;;;2.63;1.30;;;;;;;13.49;100.00;97081.00;6110609;19;20018;-71
2023/09/22 05:20:31;;;;;;;2.22;1.65;;;;;;;13.50;100.00;97095.66;6110851;19;20361;-71
2023/09/22 05:22:32;;;;;;;4.80;1.88;;;;;;;13.47;100.00;97115.94;6111354;19;20327;-72
2023/09/22 05:24:32;;;;;;;4.00;1.42;;;;;;;13.44;100.00;97139.84;6110709;19;20003;-71
2023/09/22 05:26:32;;;;;;;2.47;1.50;;;;;;;13.46;100.00;97142.94;6110988;19;20003;-71
2023/09/22 05:28:33;;;;;;;2.95;1.42;;;;;;;13.48;100.00;97136.97;6110658;19;20078;-71
2023/09/22 05:30:37;;;;;;;3.47;1.63;;;;;;;13.48;100.00;97143.31;6109397;19;20018;-71
2023/09/22 05:32:37;;;;;;;1.70;1.42;;;;;;;13.51;100.00;97149.22;6111991;19;20028;-71
2023/09/22 05:34:39;;;;;;;1.83;1.45;;;;;;;13.48;100.00;97154.41;6110895;19;20010;-71
2023/09/22 05:36:39;;;;;;;3.83;1.40;;;;;;;13.49;100.00;97169.91;6111808;19;20115;-71
2023/09/22 05:38:40;;;;;;;3.30;1.40;;;;;;;13.47;100.00;97177.84;6110297;19;20101;-71
2023/09/22 05:40:40;;;;;;;1.92;1.38;;;;;;;13.48;100.00;97182.19;6109809;19;20122;-71
2023/09/22 05:42:42;;;;;;;1.95;1.35;;;;;;;13.49;100.00;97192.13;6111535;19;20002;-71
2023/09/22 05:44:43;;;;;;;3.17;1.35;;;;;;;13.54;100.00;97187.25;6111925;19;20021;-71
2023/09/22 05:46:44;;;;;;;3.72;1.85;;;;;;;13.58;100.00;97193.53;6110354;19;20025;-71
2023/09/22 05:48:46;;;;;;;2.85;1.27;;;;;;;13.58;100.00;97179.66;6108290;19;20015;-71
2023/09/22 05:50:57;;;;;;;2.00;1.20;;;;;;;13.61;100.00;97174.00;6104933;19;20009;-71
2023/09/22 05:52:58;;;;;;;3.05;1.38;;;;;;;13.63;100.00;97154.13;6109600;19;20013;-71
2023/09/22 05:54:58;;;;;;;2.20;1.23;;;;;;;13.66;100.00;97153.28;6112261;19;20011;-71
2023/09/22 05:56:59;;;;;;;2.58;1.40;;;;;;;13.74;100.00;97168.59;6111348;19;20021;-71
2023/09/22 05:58:59;;;;;;;2.63;1.35;;;;;;;13.76;100.00;97188.38;6109581;19;20039;-71
2023/09/22 06:01:13;;;;;;;2.53;1.20;;;;;;;13.83;100.00;97199.34;6111299;19;20029;-71
2023/09/22 06:03:14;;;;;;;2.40;1.27;;;;;;;13.86;100.00;97223.50;6111401;19;20010;-71
2023/09/22 06:05:14;;;;;;;1.58;1.02;;;;;;;13.83;100.00;97229.16;6111030;19;20013;-71
2023/09/22 06:07:15;;;;;;;2.13;1.27;;;;;;;13.81;100.00;97228.78;6110575;19;20002;-71
2023/09/22 06:09:15;;;;;;;1.90;1.30;;;;;;;13.82;100.00;97227.56;6108004;19;20016;-71
2023/09/22 06:11:17;;;;;;;2.83;1.45;;;;;;;13.76;100.00;97227.31;6111163;19;20003;-71
2023/09/22 06:13:17;;;;;;;2.83;1.27;;;;;;;13.73;100.00;97225.38;6111446;19;20624;-71
2023/09/22 06:15:17;;;;;;;2.25;1.55;;;;;;;13.67;100.00;97219.53;6110097;19;20066;-71
2023/09/22 06:17:18;;;;;;;2.55;1.25;;;;;;;13.61;100.00;97215.69;6110855;19;20010;-71
2023/09/22 06:19:20;;;;;;;2.90;1.40;;;;;;;13.59;100.00;97211.78;6109651;19;20321;-71
2023/09/22 06:21:21;;;;;;;1.45;1.30;;;;;;;13.56;100.00;97210.63;6110764;19;19998;-71
2023/09/22 06:23:22;;;;;;;1.85;1.20;;;;;;;13.61;100.00;97223.25;6110684;19;20436;-71
2023/09/22 06:25:26;;;;;;;1.48;0.95;;;;;;;13.65;100.00;97218.38;6110405;19;19999;-71
2023/09/22 06:27:27;;;;;;;1.42;1.00;;;;;;;13.64;100.00;97208.47;6110076;19;20027;-71
2023/09/22 06:29:27;;;;;;;3.05;1.27;;;;;;;13.68;100.00;97196.09;6108689;19;20395;-71
2023/09/22 06:31:28;;;;;;;2.83;1.17;;;;;;;13.66;100.00;97198.53;6109570;19;20002;-72
2023/09/22 06:33:30;;;;;;;5.50;1.35;;;;;;;13.73;100.00;97208.69;6110407;19;20002;-71
2023/09/22 06:35:31;;;;;;;1.92;1.50;;;;;;;13.75;100.00;97212.63;6110491;19;20360;-71
2023/09/22 06:37:32;;;;;;;2.47;2.22;;;;;;;13.87;100.00;97225.06;6110013;19;20002;-72
2023/09/22 06:39:32;;;;;;;1.70;1.15;;;;;;;13.88;100.00;97225.84;6107863;19;20063;-71
2023/09/22 06:41:34;;;;;;;2.17;1.10;;;;;;;13.88;100.00;97225.84;6109887;19;20450;-71
2023/09/22 06:43:36;;;;;;;1.58;1.20;;;;;;;13.76;100.00;97225.31;6110676;19;20354;-72
2023/09/22 06:45:37;;;;;;;2.43;1.10;;;;;;;13.68;100.00;97214.75;6109891;19;20023;-71
2023/09/22 06:47:38;;;;;;;2.05;1.27;;;;;;;13.62;100.00;97206.13;6106408;19;20398;-72
2023/09/22 06:49:38;;;;;;;1.95;1.02;;;;;;;13.60;100.00;97205.78;6107747;19;20007;-71
2023/09/22 06:51:39;;;;;;;2.08;1.40;;;;;;;13.59;100.00;97203.44;6107863;19;20018;-71
2023/09/22 06:53:40;;;;;;;1.98;1.25;;;;;;;13.59;100.00;97215.34;6107780;19;20019;-71
2023/09/22 06:55:41;;;;;;;3.17;1.30;;;;;;;13.53;100.00;97225.38;6107340;19;20002;-71
2023/09/22 06:57:41;;;;;;;1.55;1.10;;;;;;;13.47;100.00;97211.19;6107331;19;20019;-71
2023/09/22 06:59:42;;;;;;;1.08;0.98;;;;;;;13.44;100.00;97203.72;6105156;19;20025;-71
2023/09/22 07:01:43;;;;;;;2.92;1.27;;;;;;;13.43;100.00;97212.50;6107751;19;20427;-71
2023/09/22 07:03:45;;;;;;;1.75;1.10;;;;;;;13.41;100.00;97204.59;6107407;19;20014;-71
2023/09/22 07:05:45;;;;;;;2.50;1.35;;;;;;;13.42;100.00;97220.06;6106941;19;20006;-71
2023/09/22 07:07:47;;;;;;;1.48;0.90;;;;;;;13.42;100.00;97235.94;6106929;19;20012;-71
2023/09/22 07:09:47;;;;;;;1.98;1.15;;;;;;;13.47;100.00;97247.31;6105875;19;20014;-71
2023/09/22 07:11:48;;;;;;;2.13;1.40;;;;;;;13.57;100.00;97261.44;6107505;19;20002;-72
2023/09/22 07:13:48;;;;;;;3.08;1.30;;;;;;;13.60;100.00;97261.38;6107340;19;20006;-71
2023/09/22 07:15:53;;;;;;;2.22;1.23;;;;;;;13.61;100.00;97251.03;6106773;19;20002;-72
2023/09/22 07:17:53;;;;;;;1.83;1.38;;;;;;;13.64;100.00;97264.84;6106540;19;20284;-72
2023/09/22 07:19:54;;;;;;;3.38;2.03;;;;;;;13.67;100.00;97246.56;6106396;19;20007;-72
2023/09/22 07:21:54;;;;;;;3.05;1.75;;;;;;;13.67;100.00;97243.78;6106258;19;20007;-71
2023/09/22 07:23:55;;;;;;;1.85;1.58;;;;;;;13.66;100.00;97250.56;6106227;19;20241;-71
2023/09/22 07:26:11;;;;;;;5.25;1.88;;;;;;;13.69;100.00;97272.69;6107368;19;20010;-72
2023/09/22 07:28:13;;;;;;;5.20;2.78;;;;;;;13.68;100.00;97285.03;6002057;19;2005180;-71
2023/09/22 07:30:13;;;;;;;3.50;2.63;;;;;;;13.67;100.00;97302.94;6106418;19;20408;-72
2023/09/22 07:32:14;;;;;;;3.47;2.00;;;;;;;13.70;100.00;97315.19;6106716;19;20023;-71
2023/09/22 07:34:14;;;;;;;3.55;2.25;;;;;;;13.71;100.00;97325.84;6106306;19;20514;-71
2023/09/22 07:36:15;;;;;;;3.30;2.28;;;;;;;13.68;100.00;97321.16;6106479;19;20321;-71
2023/09/22 07:38:17;;;;;;;6.13;2.25;;;;;;;13.65;100.00;97332.34;6105233;19;20003;-71
2023/09/22 07:40:18;;;;;;;;;;;;;;;13.68;100.00;97348.97;6106223;19;20441;-71
2023/09/22 07:42:18;;;;;;;3.50;1.50;;;;;;;13.64;100.00;97359.34;6105063;19;19915;-71
2023/09/22 07:44:21;;;;;;;2.42;1.70;;;;;;;13.70;100.00;97349.31;6107137;19;20042;-71
2023/09/22 07:46:22;;;;;;;1.75;1.08;;;;;;;13.66;100.00;97361.72;6106259;19;20011;-71
2023/09/22 07:48:23;;;;;;;1.55;1.45;;;;;;;13.62;100.00;97361.00;6103663;19;20011;-71
2023/09/22 07:50:23;;;;;;;1.23;1.10;;;;;;;13.61;100.00;97368.53;6104491;19;20017;-71
2023/09/22 07:52:24;;;;;;;2.30;1.27;;;;;;;13.58;100.00;97361.06;6108760;19;20082;-71
2023/09/22 07:54:24;;;;;;;3.90;1.35;;;;;;;13.57;100.00;97370.63;6107989;19;20316;-71
2023/09/22 07:56:25;;;;;;;1.33;1.05;;;;;;;13.51;100.00;97363.19;6106741;19;20018;-71
2023/09/22 07:58:26;;;;;;;2.08;1.40;;;;;;;13.47;100.00;97350.13;6107925;19;20007;-71
2023/09/22 08:00:27;;;;;;;3.58;1.20;;;;;;;13.47;100.00;97357.69;6106310;19;20013;-71
2023/09/22 08:02:27;;;;;;;2.83;1.60;;;;;;;13.48;100.00;97351.69;6106412;19;20007;-71
2023/09/22 08:04:28;;;;;;;2.67;1.52;;;;;;;13.48;100.00;97353.69;6108125;19;20010;-71
2023/09/22 08:06:31;;;;;;;2.13;1.60;;;;;;;13.47;100.00;97357.69;6107776;19;20339;-71
2023/09/22 08:08:31;;;;;;;3.08;1.42;;;;;;;13.53;100.00;97353.22;6106230;19;20010;-71
2023/09/22 08:10:32;;;;;;;2.45;1.13;;;;;;;13.55;100.00;97341.66;6105514;19;20017;-71
2023/09/22 08:12:32;;;;;;;3.67;1.38;;;;;;;13.61;100.00;97342.75;6108538;19;20010;-71
2023/09/22 08:14:34;;;;;;;1.80;1.30;;;;;;;13.64;100.00;97350.22;6106990;19;20002;-71
2023/09/22 08:16:35;;;;;;;1.52;1.38;;;;;;;13.69;100.00;97369.97;6113044;19;20458;-72
2023/09/22 08:18:37;;;;;;;2.38;1.33;;;;;;;13.75;100.00;97367.50;6113464;19;20033;-72
2023/09/22 08:20:39;;;;;;;1.88;1.20;;;;;;;13.76;100.00;97367.06;6112175;19;20006;-73
2023/09/22 08:22:40;;;;;;;3.63;1.83;;;;;;;13.77;100.00;97382.53;6113069;19;20010;-73
2023/09/22 08:24:41;;;;;;;3.93;2.00;;;;;;;13.76;100.00;97391.31;6113153;19;20029;-71
2023/09/22 08:26:42;;;;;;;3.78;2.10;;;;;;;13.77;100.00;97392.88;6113070;19;20260;-72
2023/09/22 08:28:42;;;;;;;3.05;1.60;;;;;;;13.81;100.00;97379.69;6112192;19;20011;-72
2023/09/22 08:30:42;;;;;;;2.90;1.40;;;;;;;13.85;100.00;97374.84;6110119;19;20007;-72
2023/09/22 08:32:44;;;;;;;2.47;1.60;;;;;;;13.88;100.00;97373.19;6113374;19;20035;-72
2023/09/22 08:34:46;;;;;;;2.10;1.80;;;;;;;13.90;100.00;97379.13;6112170;19;20007;-72
2023/09/22 08:36:46;;;;;;;2.42;1.50;;;;;;;13.93;100.00;97367.94;6112421;19;20085;-72
2023/09/22 08:38:47;;;;;;;3.15;1.17;;;;;;;13.98;100.00;97353.56;6109566;19;20028;-72
2023/09/22 08:40:48;;;;;;;3.08;1.33;;;;;;;14.00;100.00;97353.91;6111120;19;20002;-72
2023/09/22 08:42:51;;;;;;;2.50;1.80;;;;;;;13.96;100.00;97347.59;6111325;19;20044;-72
2023/09/22 08:44:51;;;;;;;2.40;1.40;;;;;;;13.96;100.00;97350.38;6112121;19;20477;-72
2023/09/22 08:46:54;;;;;;;3.42;1.48;;;;;;;13.98;100.00;97348.00;6110919;19;20007;-72
2023/09/22 08:49:42;;;;;;;2.40;1.10;;;;;;;13.98;100.00;97356.34;6108834;19;20006;-72
2023/09/22 08:51:43;;;;;;;3.65;1.70;;;;;;;13.92;100.00;97344.13;6105552;19;20022;-72
2023/09/22 08:53:43;;;;;;;5.22;2.70;;;;;;;13.93;100.00;97345.69;6111689;19;20003;-72
2023/09/22 08:55:44;;;;;;;3.58;1.73;;;;;;;13.94;100.00;97341.69;6111192;19;20010;-72
2023/09/22 08:57:46;;;;;;;2.55;1.40;;;;;;;13.98;100.00;97339.66;6111253;19;20006;-72
2023/09/22 08:59:51;;;;;;;;;;;;;;;13.99;100.00;97341.22;6111866;19;20010;-72
2023/09/22 09:01:52;;;;;;;3.20;2.10;;;;;;;14.01;100.00;97341.56;6112287;19;20331;-72
2023/09/22 09:03:52;;;;;;;1.92;1.35;;;;;;;14.08;100.00;97340.63;6110747;19;20040;-72
2023/09/22 09:06:05;;;;;;;1.83;1.40;;;;;;;14.21;100.00;97347.09;6111865;19;20013;-72
2023/09/22 09:08:13;;;;;;;3.00;1.30;;;;;;;14.31;100.00;97342.50;6111242;19;20427;-72
2023/09/22 09:10:34;;;;;;;2.05;1.20;;;;;;;14.38;100.00;97347.94;6111109;19;20463;-72
2023/09/22 09:12:44;;;;;;;1.58;1.40;;;;;;;14.44;100.00;97349.00;6111850;19;20017;-72
2023/09/22 09:14:46;;;;;;;1.95;1.60;;;;;;;14.53;100.00;97356.78;6111410;19;20002;-72
2023/09/22 09:16:47;;;;;;;;;;;;;;;14.58;100.00;97370.22;6111767;19;20359;-72
2023/09/22 09:18:47;;;;;;;3.10;1.85;;;;;;;14.64;100.00;97348.19;6111467;19;19982;-72
2023/09/22 09:21:05;;;;;;;2.30;1.67;;;;;;;14.66;100.00;97343.78;6109410;19;20786;-72
2023/09/22 09:23:15;;;;;;;2.92;2.20;;;;;;;14.71;100.00;97342.47;6112008;19;20450;-72
2023/09/22 09:25:16;;;;;;;2.15;1.40;;;;;;;14.81;100.00;97369.28;6111238;19;20017;-72
2023/09/22 09:27:18;;;;;;;2.97;1.40;;;;;;;14.84;100.00;97368.44;6111736;19;19999;-72